sensor_id;sensor_type;location;lat;lon;timestamp;P1;durP1;ratioP1;P2;durP2;ratioP2
1563;SDS011;775;51.958;7.976;2023-03-23T00:02:18;13.60;;;4.20;;
1563;SDS011;775;51.958;7.976;2023-03-23T00:04:46;13.03;;;3.70;;
1563;SDS011;775;51.958;7.976;2023-03-23T00:07:14;14.63;;;4.00;;
1563;SDS011;775;51.958;7.976;2023-03-23T00:09:47;12.70;;;4.00;;
1563;SDS011;775;51.958;7.976;2023-03-23T00:12:18;17.30;;;4.03;;
1563;SDS011;775;51.958;7.976;2023-03-23T00:14:45;14.53;;;3.63;;
1563;SDS011;775;51.958;7.976;2023-03-23T00:17:12;13.90;;;4.00;;
1563;SDS011;775;51.958;7.976;2023-03-23T00:19:40;12.60;;;3.90;;
1563;SDS011;775;51.958;7.976;2023-03-23T00:22:12;16.87;;;4.43;;
1563;SDS011;775;51.958;7.976;2023-03-23T00:24:39;13.27;;;3.97;;
1563;SDS011;775;51.958;7.976;2023-03-23T00:27:08;14.53;;;3.93;;
1563;SDS011;775;51.958;7.976;2023-03-23T00:29:37;12.63;;;3.87;;
1563;SDS011;775;51.958;7.976;2023-03-23T00:32:05;16.37;;;4.00;;
1563;SDS011;775;51.958;7.976;2023-03-23T00:34:37;16.77;;;4.40;;
1563;SDS011;775;51.958;7.976;2023-03-23T00:37:05;15.40;;;3.70;;
1563;SDS011;775;51.958;7.976;2023-03-23T00:39:32;16.23;;;4.03;;
1563;SDS011;775;51.958;7.976;2023-03-23T00:42:02;13.60;;;3.77;;
1563;SDS011;775;51.958;7.976;2023-03-23T00:44:31;15.50;;;3.70;;
1563;SDS011;775;51.958;7.976;2023-03-23T00:46:59;15.40;;;3.77;;
1563;SDS011;775;51.958;7.976;2023-03-23T00:49:27;12.17;;;3.60;;
1563;SDS011;775;51.958;7.976;2023-03-23T00:51:55;12.43;;;3.13;;
1563;SDS011;775;51.958;7.976;2023-03-23T00:54:23;13.73;;;3.30;;
1563;SDS011;775;51.958;7.976;2023-03-23T00:56:50;13.10;;;3.77;;
1563;SDS011;775;51.958;7.976;2023-03-23T00:59:18;12.70;;;3.10;;
1563;SDS011;775;51.958;7.976;2023-03-23T01:01:46;12.93;;;3.63;;
1563;SDS011;775;51.958;7.976;2023-03-23T01:04:14;13.17;;;3.50;;
1563;SDS011;775;51.958;7.976;2023-03-23T01:06:42;15.53;;;3.53;;
1563;SDS011;775;51.958;7.976;2023-03-23T01:09:10;12.20;;;3.50;;
1563;SDS011;775;51.958;7.976;2023-03-23T01:11:39;11.80;;;3.23;;
1563;SDS011;775;51.958;7.976;2023-03-23T01:14:07;12.63;;;3.37;;
1563;SDS011;775;51.958;7.976;2023-03-23T01:16:34;12.33;;;3.20;;
1563;SDS011;775;51.958;7.976;2023-03-23T01:19:02;13.10;;;3.77;;
1563;SDS011;775;51.958;7.976;2023-03-23T01:21:29;13.07;;;3.97;;
1563;SDS011;775;51.958;7.976;2023-03-23T01:23:57;11.83;;;3.47;;
1563;SDS011;775;51.958;7.976;2023-03-23T01:26:25;11.80;;;2.80;;
1563;SDS011;775;51.958;7.976;2023-03-23T01:28:53;13.17;;;3.63;;
1563;SDS011;775;51.958;7.976;2023-03-23T01:31:21;16.20;;;3.17;;
1563;SDS011;775;51.958;7.976;2023-03-23T01:33:48;13.17;;;2.83;;
1563;SDS011;775;51.958;7.976;2023-03-23T01:36:17;13.23;;;3.63;;
1563;SDS011;775;51.958;7.976;2023-03-23T01:38:45;11.20;;;2.30;;
1563;SDS011;775;51.958;7.976;2023-03-23T01:41:13;15.03;;;3.13;;
1563;SDS011;775;51.958;7.976;2023-03-23T01:43:53;12.30;;;3.00;;
1563;SDS011;775;51.958;7.976;2023-03-23T01:46:20;12.43;;;2.97;;
1563;SDS011;775;51.958;7.976;2023-03-23T01:48:48;12.30;;;3.10;;
1563;SDS011;775;51.958;7.976;2023-03-23T01:51:17;11.83;;;2.83;;
1563;SDS011;775;51.958;7.976;2023-03-23T01:53:46;11.97;;;2.80;;
1563;SDS011;775;51.958;7.976;2023-03-23T01:56:13;12.70;;;2.80;;
1563;SDS011;775;51.958;7.976;2023-03-23T01:58:41;12.00;;;2.50;;
1563;SDS011;775;51.958;7.976;2023-03-23T02:01:10;12.77;;;3.20;;
1563;SDS011;775;51.958;7.976;2023-03-23T02:03:39;15.17;;;3.20;;
1563;SDS011;775;51.958;7.976;2023-03-23T02:06:08;13.37;;;3.63;;
1563;SDS011;775;51.958;7.976;2023-03-23T02:08:37;11.40;;;2.80;;
1563;SDS011;775;51.958;7.976;2023-03-23T02:11:10;12.70;;;3.07;;
1563;SDS011;775;51.958;7.976;2023-03-23T02:13:38;13.50;;;2.80;;
1563;SDS011;775;51.958;7.976;2023-03-23T02:16:06;11.10;;;2.50;;
1563;SDS011;775;51.958;7.976;2023-03-23T02:18:42;12.90;;;3.10;;
1563;SDS011;775;51.958;7.976;2023-03-23T02:21:16;14.77;;;2.70;;
1563;SDS011;775;51.958;7.976;2023-03-23T02:23:54;12.87;;;2.77;;
1563;SDS011;775;51.958;7.976;2023-03-23T02:26:29;12.97;;;3.10;;
1563;SDS011;775;51.958;7.976;2023-03-23T02:29:07;11.03;;;2.47;;
1563;SDS011;775;51.958;7.976;2023-03-23T02:31:42;13.40;;;3.27;;
1563;SDS011;775;51.958;7.976;2023-03-23T02:34:12;12.70;;;2.63;;
1563;SDS011;775;51.958;7.976;2023-03-23T02:36:44;12.93;;;3.10;;
1563;SDS011;775;51.958;7.976;2023-03-23T02:39:13;12.30;;;3.07;;
1563;SDS011;775;51.958;7.976;2023-03-23T02:41:49;13.57;;;3.13;;
1563;SDS011;775;51.958;7.976;2023-03-23T02:44:18;12.10;;;2.30;;
1563;SDS011;775;51.958;7.976;2023-03-23T02:46:45;11.73;;;2.70;;
1563;SDS011;775;51.958;7.976;2023-03-23T02:49:14;11.20;;;2.33;;
1563;SDS011;775;51.958;7.976;2023-03-23T02:51:42;12.50;;;2.93;;
1563;SDS011;775;51.958;7.976;2023-03-23T02:54:11;13.60;;;2.37;;
1563;SDS011;775;51.958;7.976;2023-03-23T02:56:38;12.33;;;2.50;;
1563;SDS011;775;51.958;7.976;2023-03-23T02:59:07;10.50;;;2.03;;
1563;SDS011;775;51.958;7.976;2023-03-23T03:01:45;15.13;;;2.40;;
1563;SDS011;775;51.958;7.976;2023-03-23T03:04:15;11.63;;;2.30;;
1563;SDS011;775;51.958;7.976;2023-03-23T03:06:45;12.60;;;2.73;;
1563;SDS011;775;51.958;7.976;2023-03-23T03:09:14;11.67;;;2.47;;
1563;SDS011;775;51.958;7.976;2023-03-23T03:11:43;11.70;;;2.70;;
1563;SDS011;775;51.958;7.976;2023-03-23T03:14:16;11.43;;;2.57;;
1563;SDS011;775;51.958;7.976;2023-03-23T03:16:47;11.40;;;2.17;;
1563;SDS011;775;51.958;7.976;2023-03-23T03:19:17;10.90;;;2.20;;
1563;SDS011;775;51.958;7.976;2023-03-23T03:21:46;10.63;;;1.80;;
1563;SDS011;775;51.958;7.976;2023-03-23T03:24:14;12.07;;;2.70;;
1563;SDS011;775;51.958;7.976;2023-03-23T03:26:43;11.70;;;2.37;;
1563;SDS011;775;51.958;7.976;2023-03-23T03:29:14;11.70;;;2.23;;
1563;SDS011;775;51.958;7.976;2023-03-23T03:31:43;11.30;;;1.93;;
1563;SDS011;775;51.958;7.976;2023-03-23T03:34:10;11.30;;;2.60;;
1563;SDS011;775;51.958;7.976;2023-03-23T03:36:42;10.80;;;2.10;;
1563;SDS011;775;51.958;7.976;2023-03-23T03:39:11;11.63;;;2.30;;
1563;SDS011;775;51.958;7.976;2023-03-23T03:41:40;11.47;;;2.23;;
1563;SDS011;775;51.958;7.976;2023-03-23T03:44:07;10.47;;;1.97;;
1563;SDS011;775;51.958;7.976;2023-03-23T03:46:36;12.80;;;2.40;;
1563;SDS011;775;51.958;7.976;2023-03-23T03:49:05;11.40;;;2.20;;
1563;SDS011;775;51.958;7.976;2023-03-23T03:51:33;14.07;;;2.30;;
1563;SDS011;775;51.958;7.976;2023-03-23T03:54:00;13.47;;;2.60;;
1563;SDS011;775;51.958;7.976;2023-03-23T03:56:27;11.60;;;2.40;;
1563;SDS011;775;51.958;7.976;2023-03-23T03:58:56;10.43;;;2.10;;
1563;SDS011;775;51.958;7.976;2023-03-23T04:01:24;11.47;;;2.10;;
1563;SDS011;775;51.958;7.976;2023-03-23T04:03:54;10.70;;;2.20;;
1563;SDS011;775;51.958;7.976;2023-03-23T04:06:22;12.20;;;2.27;;
1563;SDS011;775;51.958;7.976;2023-03-23T04:08:52;12.43;;;3.00;;
1563;SDS011;775;51.958;7.976;2023-03-23T04:11:20;12.13;;;2.10;;
1563;SDS011;775;51.958;7.976;2023-03-23T04:13:47;11.70;;;2.50;;
1563;SDS011;775;51.958;7.976;2023-03-23T04:16:14;11.50;;;2.63;;
1563;SDS011;775;51.958;7.976;2023-03-23T04:18:42;12.27;;;2.50;;
1563;SDS011;775;51.958;7.976;2023-03-23T04:21:14;11.30;;;2.20;;
1563;SDS011;775;51.958;7.976;2023-03-23T04:23:41;11.37;;;2.17;;
1563;SDS011;775;51.958;7.976;2023-03-23T04:26:09;11.10;;;2.20;;
1563;SDS011;775;51.958;7.976;2023-03-23T04:28:38;11.50;;;2.00;;
1563;SDS011;775;51.958;7.976;2023-03-23T04:31:06;11.97;;;2.60;;
1563;SDS011;775;51.958;7.976;2023-03-23T04:33:33;10.90;;;2.37;;
1563;SDS011;775;51.958;7.976;2023-03-23T04:36:02;12.80;;;2.20;;
1563;SDS011;775;51.958;7.976;2023-03-23T04:38:32;11.00;;;2.43;;
1563;SDS011;775;51.958;7.976;2023-03-23T04:41:00;12.80;;;2.53;;
1563;SDS011;775;51.958;7.976;2023-03-23T04:43:27;12.37;;;2.40;;
1563;SDS011;775;51.958;7.976;2023-03-23T04:45:55;10.80;;;2.00;;
1563;SDS011;775;51.958;7.976;2023-03-23T04:48:22;11.87;;;2.60;;
1563;SDS011;775;51.958;7.976;2023-03-23T04:50:49;11.10;;;2.23;;
1563;SDS011;775;51.958;7.976;2023-03-23T04:53:17;12.27;;;2.87;;
1563;SDS011;775;51.958;7.976;2023-03-23T04:55:46;14.20;;;1.93;;
1563;SDS011;775;51.958;7.976;2023-03-23T04:58:14;12.00;;;2.57;;
1563;SDS011;775;51.958;7.976;2023-03-23T05:00:41;11.20;;;2.40;;
1563;SDS011;775;51.958;7.976;2023-03-23T05:03:14;11.30;;;2.43;;
1563;SDS011;775;51.958;7.976;2023-03-23T05:05:41;11.93;;;2.40;;
1563;SDS011;775;51.958;7.976;2023-03-23T05:08:11;12.10;;;2.70;;
1563;SDS011;775;51.958;7.976;2023-03-23T05:10:38;12.10;;;2.50;;
1563;SDS011;775;51.958;7.976;2023-03-23T05:13:07;11.80;;;2.60;;
1563;SDS011;775;51.958;7.976;2023-03-23T05:15:34;11.73;;;2.50;;
1563;SDS011;775;51.958;7.976;2023-03-23T05:18:01;11.00;;;2.40;;
1563;SDS011;775;51.958;7.976;2023-03-23T05:20:28;11.17;;;2.13;;
1563;SDS011;775;51.958;7.976;2023-03-23T05:22:55;10.70;;;2.30;;
1563;SDS011;775;51.958;7.976;2023-03-23T05:25:23;11.00;;;2.60;;
1563;SDS011;775;51.958;7.976;2023-03-23T05:27:51;14.03;;;2.13;;
1563;SDS011;775;51.958;7.976;2023-03-23T05:30:20;10.80;;;2.20;;
1563;SDS011;775;51.958;7.976;2023-03-23T05:32:47;13.90;;;2.20;;
1563;SDS011;775;51.958;7.976;2023-03-23T05:35:15;11.27;;;2.40;;
1563;SDS011;775;51.958;7.976;2023-03-23T05:37:43;11.27;;;2.33;;
1563;SDS011;775;51.958;7.976;2023-03-23T05:40:11;11.20;;;2.53;;
1563;SDS011;775;51.958;7.976;2023-03-23T05:42:38;10.87;;;2.10;;
1563;SDS011;775;51.958;7.976;2023-03-23T05:45:06;11.07;;;2.23;;
1563;SDS011;775;51.958;7.976;2023-03-23T05:47:37;13.43;;;2.73;;
1563;SDS011;775;51.958;7.976;2023-03-23T05:50:05;12.60;;;2.77;;
1563;SDS011;775;51.958;7.976;2023-03-23T05:52:34;11.20;;;2.40;;
1563;SDS011;775;51.958;7.976;2023-03-23T05:55:01;11.33;;;2.33;;
1563;SDS011;775;51.958;7.976;2023-03-23T05:57:29;11.33;;;2.60;;
1563;SDS011;775;51.958;7.976;2023-03-23T05:59:56;11.83;;;2.63;;
1563;SDS011;775;51.958;7.976;2023-03-23T06:02:25;11.80;;;2.47;;
1563;SDS011;775;51.958;7.976;2023-03-23T06:04:55;10.97;;;2.40;;
1563;SDS011;775;51.958;7.976;2023-03-23T06:07:23;11.87;;;2.50;;
1563;SDS011;775;51.958;7.976;2023-03-23T06:09:50;10.70;;;2.33;;
1563;SDS011;775;51.958;7.976;2023-03-23T06:12:18;11.63;;;2.07;;
1563;SDS011;775;51.958;7.976;2023-03-23T06:14:45;11.07;;;2.23;;
1563;SDS011;775;51.958;7.976;2023-03-23T06:17:13;11.83;;;2.70;;
1563;SDS011;775;51.958;7.976;2023-03-23T06:19:41;10.57;;;1.97;;
1563;SDS011;775;51.958;7.976;2023-03-23T06:22:10;11.27;;;2.43;;
1563;SDS011;775;51.958;7.976;2023-03-23T06:24:37;11.50;;;2.40;;
1563;SDS011;775;51.958;7.976;2023-03-23T06:27:04;11.27;;;2.47;;
1563;SDS011;775;51.958;7.976;2023-03-23T06:29:31;12.77;;;2.83;;
1563;SDS011;775;51.958;7.976;2023-03-23T06:31:59;12.20;;;2.50;;
1563;SDS011;775;51.958;7.976;2023-03-23T06:34:27;11.73;;;2.50;;
1563;SDS011;775;51.958;7.976;2023-03-23T06:36:54;11.13;;;2.37;;
1563;SDS011;775;51.958;7.976;2023-03-23T06:39:23;11.30;;;2.37;;
1563;SDS011;775;51.958;7.976;2023-03-23T06:41:50;11.33;;;2.40;;
1563;SDS011;775;51.958;7.976;2023-03-23T06:44:17;11.50;;;2.60;;
1563;SDS011;775;51.958;7.976;2023-03-23T06:46:44;11.07;;;2.23;;
1563;SDS011;775;51.958;7.976;2023-03-23T06:49:13;11.50;;;2.60;;
1563;SDS011;775;51.958;7.976;2023-03-23T06:51:40;10.90;;;2.03;;
1563;SDS011;775;51.958;7.976;2023-03-23T06:54:07;11.97;;;2.73;;
1563;SDS011;775;51.958;7.976;2023-03-23T06:56:36;11.33;;;2.47;;
1563;SDS011;775;51.958;7.976;2023-03-23T06:59:03;12.50;;;2.70;;
1563;SDS011;775;51.958;7.976;2023-03-23T07:01:30;11.67;;;2.50;;
1563;SDS011;775;51.958;7.976;2023-03-23T07:03:57;11.83;;;2.20;;
1563;SDS011;775;51.958;7.976;2023-03-23T07:06:24;12.20;;;2.63;;
1563;SDS011;775;51.958;7.976;2023-03-23T07:08:52;12.40;;;2.53;;
1563;SDS011;775;51.958;7.976;2023-03-23T07:11:19;11.47;;;2.50;;
1563;SDS011;775;51.958;7.976;2023-03-23T07:13:47;13.37;;;2.30;;
1563;SDS011;775;51.958;7.976;2023-03-23T07:16:15;11.87;;;2.60;;
1563;SDS011;775;51.958;7.976;2023-03-23T07:18:42;11.50;;;2.30;;
1563;SDS011;775;51.958;7.976;2023-03-23T07:21:09;11.13;;;2.37;;
1563;SDS011;775;51.958;7.976;2023-03-23T07:23:36;11.80;;;2.17;;
1563;SDS011;775;51.958;7.976;2023-03-23T07:26:04;12.20;;;2.07;;
1563;SDS011;775;51.958;7.976;2023-03-23T07:28:31;11.73;;;2.10;;
1563;SDS011;775;51.958;7.976;2023-03-23T07:31:00;12.13;;;2.40;;
1563;SDS011;775;51.958;7.976;2023-03-23T07:33:27;12.80;;;2.70;;
1563;SDS011;775;51.958;7.976;2023-03-23T07:35:54;12.17;;;2.63;;
1563;SDS011;775;51.958;7.976;2023-03-23T07:38:21;13.03;;;2.57;;
1563;SDS011;775;51.958;7.976;2023-03-23T07:40:50;12.03;;;2.13;;
1563;SDS011;775;51.958;7.976;2023-03-23T07:43:17;12.60;;;2.37;;
1563;SDS011;775;51.958;7.976;2023-03-23T07:45:45;10.77;;;1.93;;
1563;SDS011;775;51.958;7.976;2023-03-23T07:48:13;11.50;;;2.43;;
1563;SDS011;775;51.958;7.976;2023-03-23T07:50:40;11.20;;;2.30;;
1563;SDS011;775;51.958;7.976;2023-03-23T07:53:08;10.77;;;2.20;;
1563;SDS011;775;51.958;7.976;2023-03-23T07:55:36;14.83;;;2.73;;
1563;SDS011;775;51.958;7.976;2023-03-23T07:58:03;12.70;;;2.70;;
1563;SDS011;775;51.958;7.976;2023-03-23T08:00:31;13.73;;;2.53;;
1563;SDS011;775;51.958;7.976;2023-03-23T08:02:58;13.30;;;2.97;;
1563;SDS011;775;51.958;7.976;2023-03-23T08:05:26;11.10;;;2.53;;
1563;SDS011;775;51.958;7.976;2023-03-23T08:07:54;15.33;;;3.03;;
1563;SDS011;775;51.958;7.976;2023-03-23T08:10:22;12.07;;;2.70;;
1563;SDS011;775;51.958;7.976;2023-03-23T08:12:50;13.07;;;2.80;;
1563;SDS011;775;51.958;7.976;2023-03-23T08:15:18;11.97;;;2.50;;
1563;SDS011;775;51.958;7.976;2023-03-23T08:17:46;12.73;;;2.70;;
1563;SDS011;775;51.958;7.976;2023-03-23T08:20:13;15.83;;;3.53;;
1563;SDS011;775;51.958;7.976;2023-03-23T08:22:43;13.33;;;2.60;;
1563;SDS011;775;51.958;7.976;2023-03-23T08:25:12;11.50;;;2.70;;
1563;SDS011;775;51.958;7.976;2023-03-23T08:27:39;13.33;;;2.80;;
1563;SDS011;775;51.958;7.976;2023-03-23T08:30:08;11.40;;;2.60;;
1563;SDS011;775;51.958;7.976;2023-03-23T08:32:36;15.50;;;3.13;;
1563;SDS011;775;51.958;7.976;2023-03-23T08:35:03;12.00;;;3.00;;
1563;SDS011;775;51.958;7.976;2023-03-23T08:37:31;14.67;;;3.00;;
1563;SDS011;775;51.958;7.976;2023-03-23T08:39:59;14.10;;;2.57;;
1563;SDS011;775;51.958;7.976;2023-03-23T08:42:32;13.20;;;2.60;;
1563;SDS011;775;51.958;7.976;2023-03-23T08:44:59;14.33;;;3.60;;
1563;SDS011;775;51.958;7.976;2023-03-23T08:47:28;12.20;;;2.50;;
1563;SDS011;775;51.958;7.976;2023-03-23T08:49:55;13.03;;;2.50;;
1563;SDS011;775;51.958;7.976;2023-03-23T08:52:22;15.83;;;2.77;;
1563;SDS011;775;51.958;7.976;2023-03-23T08:54:49;11.43;;;2.47;;
1563;SDS011;775;51.958;7.976;2023-03-23T08:57:18;13.60;;;2.87;;
1563;SDS011;775;51.958;7.976;2023-03-23T08:59:45;12.67;;;3.10;;
1563;SDS011;775;51.958;7.976;2023-03-23T09:02:12;13.83;;;2.50;;
1563;SDS011;775;51.958;7.976;2023-03-23T09:04:40;14.00;;;2.50;;
1563;SDS011;775;51.958;7.976;2023-03-23T09:07:08;14.33;;;2.53;;
1563;SDS011;775;51.958;7.976;2023-03-23T09:09:36;11.20;;;2.07;;
1563;SDS011;775;51.958;7.976;2023-03-23T09:12:04;12.13;;;2.30;;
1563;SDS011;775;51.958;7.976;2023-03-23T09:14:33;11.70;;;2.43;;
1563;SDS011;775;51.958;7.976;2023-03-23T09:17:00;11.80;;;2.00;;
1563;SDS011;775;51.958;7.976;2023-03-23T09:19:28;12.40;;;2.53;;
1563;SDS011;775;51.958;7.976;2023-03-23T09:21:55;12.00;;;2.40;;
1563;SDS011;775;51.958;7.976;2023-03-23T09:24:22;11.37;;;2.00;;
1563;SDS011;775;51.958;7.976;2023-03-23T09:26:50;11.97;;;2.40;;
1563;SDS011;775;51.958;7.976;2023-03-23T09:29:17;11.80;;;2.27;;
1563;SDS011;775;51.958;7.976;2023-03-23T09:31:47;14.67;;;2.23;;
1563;SDS011;775;51.958;7.976;2023-03-23T09:34:14;15.80;;;2.77;;
1563;SDS011;775;51.958;7.976;2023-03-23T09:36:42;12.50;;;3.20;;
1563;SDS011;775;51.958;7.976;2023-03-23T09:39:09;12.70;;;2.37;;
1563;SDS011;775;51.958;7.976;2023-03-23T09:41:40;11.67;;;2.20;;
1563;SDS011;775;51.958;7.976;2023-03-23T09:44:12;11.57;;;2.00;;
1563;SDS011;775;51.958;7.976;2023-03-23T09:46:48;13.90;;;2.37;;
1563;SDS011;775;51.958;7.976;2023-03-23T09:49:17;15.70;;;3.63;;
1563;SDS011;775;51.958;7.976;2023-03-23T09:51:46;13.03;;;2.70;;
1563;SDS011;775;51.958;7.976;2023-03-23T09:54:18;11.43;;;2.40;;
1563;SDS011;775;51.958;7.976;2023-03-23T09:56:46;14.20;;;2.60;;
1563;SDS011;775;51.958;7.976;2023-03-23T09:59:15;14.90;;;2.43;;
1563;SDS011;775;51.958;7.976;2023-03-23T10:01:44;13.00;;;2.70;;
1563;SDS011;775;51.958;7.976;2023-03-23T10:04:14;12.13;;;2.00;;
1563;SDS011;775;51.958;7.976;2023-03-23T10:06:43;15.77;;;2.57;;
1563;SDS011;775;51.958;7.976;2023-03-23T10:09:14;13.17;;;2.73;;
1563;SDS011;775;51.958;7.976;2023-03-23T10:11:45;13.53;;;2.90;;
1563;SDS011;775;51.958;7.976;2023-03-23T10:14:17;12.70;;;2.33;;
1563;SDS011;775;51.958;7.976;2023-03-23T10:16:48;13.20;;;1.80;;
1563;SDS011;775;51.958;7.976;2023-03-23T10:19:20;16.20;;;2.17;;
1563;SDS011;775;51.958;7.976;2023-03-23T10:21:48;11.87;;;1.43;;
1563;SDS011;775;51.958;7.976;2023-03-23T10:24:19;12.63;;;1.60;;
1563;SDS011;775;51.958;7.976;2023-03-23T10:26:48;10.50;;;1.20;;
1563;SDS011;775;51.958;7.976;2023-03-23T10:29:18;9.87;;;1.10;;
1563;SDS011;775;51.958;7.976;2023-03-23T10:31:46;10.77;;;1.10;;
1563;SDS011;775;51.958;7.976;2023-03-23T10:34:17;11.20;;;1.40;;
1563;SDS011;775;51.958;7.976;2023-03-23T10:36:59;10.50;;;1.07;;
1563;SDS011;775;51.958;7.976;2023-03-23T10:39:28;9.97;;;1.27;;
1563;SDS011;775;51.958;7.976;2023-03-23T10:41:56;9.97;;;1.30;;
1563;SDS011;775;51.958;7.976;2023-03-23T10:44:31;10.07;;;1.07;;
1563;SDS011;775;51.958;7.976;2023-03-23T10:47:00;10.70;;;1.33;;
1563;SDS011;775;51.958;7.976;2023-03-23T10:49:28;12.67;;;1.20;;
1563;SDS011;775;51.958;7.976;2023-03-23T10:52:01;10.20;;;1.30;;
1563;SDS011;775;51.958;7.976;2023-03-23T10:54:32;10.60;;;1.30;;
1563;SDS011;775;51.958;7.976;2023-03-23T10:57:00;10.30;;;1.30;;
1563;SDS011;775;51.958;7.976;2023-03-23T10:59:27;9.80;;;1.10;;
1563;SDS011;775;51.958;7.976;2023-03-23T11:01:56;9.93;;;1.40;;
1563;SDS011;775;51.958;7.976;2023-03-23T11:04:24;13.70;;;1.30;;
1563;SDS011;775;51.958;7.976;2023-03-23T11:06:52;10.37;;;1.60;;
1563;SDS011;775;51.958;7.976;2023-03-23T11:09:32;10.87;;;1.23;;
1563;SDS011;775;51.958;7.976;2023-03-23T11:12:00;10.87;;;1.40;;
1563;SDS011;775;51.958;7.976;2023-03-23T11:14:28;11.30;;;1.43;;
1563;SDS011;775;51.958;7.976;2023-03-23T11:16:55;10.63;;;1.63;;
1563;SDS011;775;51.958;7.976;2023-03-23T11:19:24;11.20;;;1.57;;
1563;SDS011;775;51.958;7.976;2023-03-23T11:21:52;10.23;;;1.20;;
1563;SDS011;775;51.958;7.976;2023-03-23T11:24:22;10.70;;;1.70;;
1563;SDS011;775;51.958;7.976;2023-03-23T11:26:49;11.63;;;1.70;;
1563;SDS011;775;51.958;7.976;2023-03-23T11:29:18;12.47;;;1.50;;
1563;SDS011;775;51.958;7.976;2023-03-23T11:31:46;13.30;;;1.10;;
1563;SDS011;775;51.958;7.976;2023-03-23T11:34:16;10.40;;;1.40;;
1563;SDS011;775;51.958;7.976;2023-03-23T11:36:47;11.17;;;1.47;;
1563;SDS011;775;51.958;7.976;2023-03-23T11:39:19;10.70;;;1.53;;
1563;SDS011;775;51.958;7.976;2023-03-23T11:41:48;11.17;;;1.73;;
1563;SDS011;775;51.958;7.976;2023-03-23T11:44:15;11.10;;;1.43;;
1563;SDS011;775;51.958;7.976;2023-03-23T11:46:47;11.53;;;1.60;;
1563;SDS011;775;51.958;7.976;2023-03-23T11:49:20;12.27;;;1.40;;
1563;SDS011;775;51.958;7.976;2023-03-23T11:51:50;11.50;;;1.77;;
1563;SDS011;775;51.958;7.976;2023-03-23T11:54:26;12.07;;;1.40;;
1563;SDS011;775;51.958;7.976;2023-03-23T11:56:57;13.37;;;1.73;;
1563;SDS011;775;51.958;7.976;2023-03-23T11:59:28;11.43;;;1.60;;
1563;SDS011;775;51.958;7.976;2023-03-23T12:01:58;11.03;;;1.40;;
1563;SDS011;775;51.958;7.976;2023-03-23T12:04:40;10.73;;;1.63;;
1563;SDS011;775;51.958;7.976;2023-03-23T12:07:17;12.30;;;1.60;;
1563;SDS011;775;51.958;7.976;2023-03-23T12:09:48;10.60;;;1.70;;
1563;SDS011;775;51.958;7.976;2023-03-23T12:12:18;10.70;;;1.70;;
1563;SDS011;775;51.958;7.976;2023-03-23T12:14:51;9.93;;;1.27;;
1563;SDS011;775;51.958;7.976;2023-03-23T12:17:23;12.60;;;1.50;;
1563;SDS011;775;51.958;7.976;2023-03-23T12:19:56;12.90;;;1.67;;
1563;SDS011;775;51.958;7.976;2023-03-23T12:22:37;12.20;;;1.40;;
1563;SDS011;775;51.958;7.976;2023-03-23T12:25:12;11.50;;;1.20;;
1563;SDS011;775;51.958;7.976;2023-03-23T12:27:45;10.70;;;1.30;;
1563;SDS011;775;51.958;7.976;2023-03-23T12:30:18;12.00;;;1.60;;
1563;SDS011;775;51.958;7.976;2023-03-23T12:32:54;12.17;;;1.40;;
1563;SDS011;775;51.958;7.976;2023-03-23T12:35:31;11.57;;;1.60;;
1563;SDS011;775;51.958;7.976;2023-03-23T12:38:07;12.07;;;1.60;;
1563;SDS011;775;51.958;7.976;2023-03-23T12:40:48;10.23;;;1.50;;
1563;SDS011;775;51.958;7.976;2023-03-23T12:43:22;10.40;;;1.50;;
1563;SDS011;775;51.958;7.976;2023-03-23T12:45:56;10.80;;;1.70;;
1563;SDS011;775;51.958;7.976;2023-03-23T12:48:26;11.47;;;1.50;;
1563;SDS011;775;51.958;7.976;2023-03-23T12:51:02;10.50;;;1.70;;
1563;SDS011;775;51.958;7.976;2023-03-23T12:53:34;10.40;;;1.50;;
1563;SDS011;775;51.958;7.976;2023-03-23T12:56:06;12.03;;;1.60;;
1563;SDS011;775;51.958;7.976;2023-03-23T12:58:39;10.53;;;1.50;;
1563;SDS011;775;51.958;7.976;2023-03-23T13:01:09;13.70;;;1.47;;
1563;SDS011;775;51.958;7.976;2023-03-23T13:03:39;11.07;;;1.70;;
1563;SDS011;775;51.958;7.976;2023-03-23T13:06:11;11.00;;;1.70;;
1563;SDS011;775;51.958;7.976;2023-03-23T13:08:41;11.80;;;1.53;;
1563;SDS011;775;51.958;7.976;2023-03-23T13:11:10;12.13;;;1.93;;
1563;SDS011;775;51.958;7.976;2023-03-23T13:13:43;10.50;;;1.47;;
1563;SDS011;775;51.958;7.976;2023-03-23T13:16:11;10.20;;;1.50;;
1563;SDS011;775;51.958;7.976;2023-03-23T13:18:42;12.33;;;2.00;;
1563;SDS011;775;51.958;7.976;2023-03-23T13:21:13;11.77;;;1.97;;
1563;SDS011;775;51.958;7.976;2023-03-23T13:23:42;11.03;;;2.00;;
1563;SDS011;775;51.958;7.976;2023-03-23T13:26:11;10.60;;;1.80;;
1563;SDS011;775;51.958;7.976;2023-03-23T13:28:51;13.77;;;1.83;;
1563;SDS011;775;51.958;7.976;2023-03-23T13:31:22;10.60;;;1.70;;
1563;SDS011;775;51.958;7.976;2023-03-23T13:33:51;11.37;;;2.07;;
1563;SDS011;775;51.958;7.976;2023-03-23T13:36:24;10.60;;;1.80;;
1563;SDS011;775;51.958;7.976;2023-03-23T13:38:52;11.60;;;2.17;;
1563;SDS011;775;51.958;7.976;2023-03-23T13:41:19;11.80;;;1.80;;
1563;SDS011;775;51.958;7.976;2023-03-23T13:43:47;11.40;;;2.27;;
1563;SDS011;775;51.958;7.976;2023-03-23T13:46:27;12.43;;;2.50;;
1563;SDS011;775;51.958;7.976;2023-03-23T13:49:13;10.80;;;2.00;;
1563;SDS011;775;51.958;7.976;2023-03-23T13:51:47;14.73;;;2.40;;
1563;SDS011;775;51.958;7.976;2023-03-23T13:54:19;11.40;;;2.87;;
1563;SDS011;775;51.958;7.976;2023-03-23T13:56:52;11.13;;;2.93;;
1563;SDS011;775;51.958;7.976;2023-03-23T13:59:28;11.17;;;2.87;;
1563;SDS011;775;51.958;7.976;2023-03-23T14:01:57;12.97;;;4.43;;
1563;SDS011;775;51.958;7.976;2023-03-23T14:04:44;13.30;;;4.60;;
1563;SDS011;775;51.958;7.976;2023-03-23T14:07:15;13.60;;;4.73;;
1563;SDS011;775;51.958;7.976;2023-03-23T14:09:44;13.50;;;4.10;;
1563;SDS011;775;51.958;7.976;2023-03-23T14:12:14;13.50;;;5.00;;
1563;SDS011;775;51.958;7.976;2023-03-23T14:14:42;15.17;;;5.60;;
1563;SDS011;775;51.958;7.976;2023-03-23T14:17:13;14.70;;;5.00;;
1563;SDS011;775;51.958;7.976;2023-03-23T14:19:41;13.73;;;5.27;;
1563;SDS011;775;51.958;7.976;2023-03-23T14:22:16;13.27;;;5.03;;
1563;SDS011;775;51.958;7.976;2023-03-23T14:24:44;13.43;;;5.27;;
1563;SDS011;775;51.958;7.976;2023-03-23T14:27:12;13.57;;;5.23;;
1563;SDS011;775;51.958;7.976;2023-03-23T14:29:39;14.90;;;5.23;;
1563;SDS011;775;51.958;7.976;2023-03-23T14:32:08;14.37;;;5.20;;
1563;SDS011;775;51.958;7.976;2023-03-23T14:34:38;14.50;;;6.40;;
1563;SDS011;775;51.958;7.976;2023-03-23T14:37:05;13.67;;;5.90;;
1563;SDS011;775;51.958;7.976;2023-03-23T14:39:36;15.70;;;6.50;;
1563;SDS011;775;51.958;7.976;2023-03-23T14:42:04;14.00;;;6.20;;
1563;SDS011;775;51.958;7.976;2023-03-23T14:44:34;15.20;;;5.93;;
1563;SDS011;775;51.958;7.976;2023-03-23T14:47:03;15.00;;;6.50;;
1563;SDS011;775;51.958;7.976;2023-03-23T14:49:31;14.50;;;6.67;;
1563;SDS011;775;51.958;7.976;2023-03-23T14:52:02;14.93;;;5.63;;
1563;SDS011;775;51.958;7.976;2023-03-23T14:54:31;17.77;;;6.13;;
1563;SDS011;775;51.958;7.976;2023-03-23T14:57:02;14.67;;;5.70;;
1563;SDS011;775;51.958;7.976;2023-03-23T14:59:30;15.30;;;4.77;;
1563;SDS011;775;51.958;7.976;2023-03-23T15:01:57;13.50;;;5.10;;
1563;SDS011;775;51.958;7.976;2023-03-23T15:04:26;15.33;;;5.10;;
1563;SDS011;775;51.958;7.976;2023-03-23T15:06:55;13.67;;;4.50;;
1563;SDS011;775;51.958;7.976;2023-03-23T15:09:24;14.63;;;4.77;;
1563;SDS011;775;51.958;7.976;2023-03-23T15:11:53;14.27;;;4.57;;
1563;SDS011;775;51.958;7.976;2023-03-23T15:14:22;13.47;;;4.40;;
1563;SDS011;775;51.958;7.976;2023-03-23T15:16:50;11.80;;;4.03;;
1563;SDS011;775;51.958;7.976;2023-03-23T15:19:19;14.70;;;3.90;;
1563;SDS011;775;51.958;7.976;2023-03-23T15:21:48;12.80;;;3.73;;
1563;SDS011;775;51.958;7.976;2023-03-23T15:24:34;13.63;;;3.73;;
1563;SDS011;775;51.958;7.976;2023-03-23T15:27:04;13.43;;;3.77;;
1563;SDS011;775;51.958;7.976;2023-03-23T15:29:45;12.80;;;4.00;;